createdAt,value
2024-03-16T00:02:23.809Z,2.23
2024-03-16T00:04:51.188Z,2.33
2024-03-16T00:07:18.363Z,2.40
2024-03-16T00:09:45.683Z,2.10
2024-03-16T00:12:12.944Z,2.30
2024-03-16T00:14:40.501Z,2.40
2024-03-16T00:17:07.803Z,2.43
2024-03-16T00:19:35.031Z,2.50
2024-03-16T00:22:02.678Z,2.50
2024-03-16T00:24:30.389Z,2.30
2024-03-16T00:26:58.843Z,2.13
2024-03-16T00:29:26.076Z,2.73
2024-03-16T00:31:53.351Z,2.50
2024-03-16T00:34:20.717Z,2.43
2024-03-16T00:36:48.999Z,2.50
2024-03-16T00:39:16.960Z,2.80
2024-03-16T00:41:44.491Z,2.60
2024-03-16T00:44:12.207Z,2.43
2024-03-16T00:46:39.536Z,2.43
2024-03-16T00:49:06.903Z,2.20
2024-03-16T00:51:34.573Z,1.60
2024-03-16T00:54:01.963Z,1.70
2024-03-16T00:56:29.291Z,1.77
2024-03-16T00:58:56.553Z,2.33
2024-03-16T01:01:24.031Z,2.90
2024-03-16T01:03:51.374Z,2.83
2024-03-16T01:06:18.676Z,3.20
2024-03-16T01:08:45.905Z,2.97
2024-03-16T01:11:13.238Z,2.93
2024-03-16T01:13:40.429Z,2.77
2024-03-16T01:16:07.766Z,2.90
2024-03-16T01:18:35.032Z,3.13
2024-03-16T01:21:02.815Z,3.13
2024-03-16T01:23:31.529Z,3.00
2024-03-16T01:25:58.881Z,2.90
2024-03-16T01:28:26.097Z,2.80
2024-03-16T01:30:53.483Z,2.90
2024-03-16T01:33:20.825Z,2.90
2024-03-16T01:35:51.088Z,2.63
2024-03-16T01:38:18.553Z,2.80
2024-03-16T01:40:45.919Z,2.53
2024-03-16T01:43:14.532Z,2.57
2024-03-16T01:45:42.429Z,2.20
2024-03-16T01:48:11.029Z,2.60
2024-03-16T01:50:39.070Z,2.73
2024-03-16T01:53:06.888Z,2.33
2024-03-16T01:55:36.073Z,2.80
2024-03-16T01:58:05.738Z,2.57
2024-03-16T02:00:37.399Z,2.50
2024-03-16T02:03:04.908Z,2.50
2024-03-16T02:05:32.689Z,2.47
2024-03-16T02:08:01.142Z,2.87
2024-03-16T02:10:28.609Z,2.50
2024-03-16T02:12:55.910Z,2.80
2024-03-16T02:15:23.654Z,2.57
2024-03-16T02:17:51.770Z,2.60
2024-03-16T02:20:21.090Z,2.60
2024-03-16T02:22:49.597Z,2.50
2024-03-16T02:25:17.498Z,2.57
2024-03-16T02:27:45.052Z,2.30
2024-03-16T02:30:14.306Z,2.70
2024-03-16T02:32:41.638Z,2.53
2024-03-16T02:35:11.748Z,2.50
2024-03-16T02:37:38.997Z,2.20
2024-03-16T02:40:07.340Z,2.00
2024-03-16T02:42:36.880Z,2.23
2024-03-16T02:45:04.678Z,2.20
2024-03-16T02:47:31.898Z,1.87
2024-03-16T02:49:59.174Z,1.90
2024-03-16T02:52:26.425Z,1.80
2024-03-16T02:54:53.708Z,1.90
2024-03-16T02:57:21.745Z,1.80
2024-03-16T02:59:49.037Z,1.50
2024-03-16T03:02:17.410Z,0.80
2024-03-16T03:04:45.703Z,1.67
2024-03-16T03:07:14.354Z,1.70
2024-03-16T03:09:41.779Z,1.50
2024-03-16T03:12:09.004Z,1.47
2024-03-16T03:14:36.352Z,1.50
2024-03-16T03:17:03.691Z,1.60
2024-03-16T03:19:30.991Z,1.30
2024-03-16T03:21:58.264Z,1.10
2024-03-16T03:24:25.621Z,1.20
2024-03-16T03:26:53.184Z,1.30
2024-03-16T03:29:20.879Z,1.07
2024-03-16T03:31:48.132Z,1.20
2024-03-16T03:34:15.400Z,1.30
2024-03-16T03:36:45.746Z,1.20
2024-03-16T03:39:16.879Z,1.40
2024-03-16T03:41:44.317Z,1.30
2024-03-16T03:44:25.921Z,1.20
2024-03-16T03:46:55.778Z,1.30
2024-03-16T03:49:33.485Z,1.10
2024-03-16T03:52:04.625Z,1.00
2024-03-16T03:54:33.365Z,1.20
2024-03-16T03:57:00.679Z,1.33
2024-03-16T03:59:28.012Z,1.10
2024-03-16T04:01:55.253Z,0.90
2024-03-16T04:04:23.304Z,0.97
2024-03-16T04:06:50.862Z,0.90
2024-03-16T04:09:18.101Z,1.10
2024-03-16T04:11:45.322Z,1.00
2024-03-16T04:14:12.637Z,0.80
2024-03-16T04:16:39.832Z,0.90
2024-03-16T04:19:07.860Z,0.80
2024-03-16T04:21:35.180Z,0.80
2024-03-16T04:24:02.495Z,0.90
2024-03-16T04:26:29.761Z,0.80
2024-03-16T04:28:56.927Z,0.90
2024-03-16T04:31:24.208Z,0.80
2024-03-16T04:33:52.667Z,0.80
2024-03-16T04:36:20.062Z,0.90
2024-03-16T04:38:47.272Z,0.83
2024-03-16T04:41:15.352Z,0.80
2024-03-16T04:43:43.101Z,0.80
2024-03-16T04:46:10.493Z,0.90
2024-03-16T04:48:37.999Z,0.70
2024-03-16T04:51:05.394Z,0.80
2024-03-16T04:53:32.811Z,0.80
2024-03-16T04:56:00.205Z,0.90
2024-03-16T04:58:27.668Z,0.80
2024-03-16T05:00:54.936Z,0.90
2024-03-16T05:03:22.286Z,0.80
2024-03-16T05:05:52.959Z,0.80
2024-03-16T05:08:20.519Z,0.83
2024-03-16T05:10:53.212Z,0.87
2024-03-16T05:13:20.637Z,0.80
2024-03-16T05:15:48.033Z,0.90
2024-03-16T05:18:15.906Z,0.73
2024-03-16T05:20:43.304Z,0.90
2024-03-16T05:23:10.535Z,0.90
2024-03-16T05:25:41.024Z,0.90
2024-03-16T05:28:08.394Z,0.90
2024-03-16T05:30:35.677Z,0.70
2024-03-16T05:33:03.103Z,0.83
2024-03-16T05:35:30.344Z,0.90
2024-03-16T05:37:57.778Z,0.90
2024-03-16T05:40:25.985Z,0.93
2024-03-16T05:42:53.475Z,1.00
2024-03-16T05:45:20.801Z,0.90
2024-03-16T05:47:48.089Z,0.90
2024-03-16T05:50:15.312Z,1.00
2024-03-16T05:52:42.562Z,0.90
2024-03-16T05:55:09.867Z,1.00
2024-03-16T05:57:37.417Z,1.00
2024-03-16T06:00:14.797Z,1.00
2024-03-16T06:02:42.339Z,1.00
2024-03-16T06:05:10.782Z,1.10
2024-03-16T06:07:38.003Z,1.20
2024-03-16T06:10:05.470Z,1.00
2024-03-16T06:12:32.863Z,1.07
2024-03-16T06:15:00.362Z,1.10
2024-03-16T06:17:27.667Z,1.37
2024-03-16T06:19:55.689Z,1.40
2024-03-16T06:22:23.247Z,1.20
2024-03-16T06:24:51.026Z,1.60
2024-03-16T06:27:22.670Z,2.10
2024-03-16T06:29:53.944Z,1.40
2024-03-16T06:32:21.834Z,1.70
2024-03-16T06:34:52.295Z,1.50
2024-03-16T06:37:19.751Z,1.40
2024-03-16T06:39:49.953Z,1.37
2024-03-16T06:42:17.405Z,1.60
2024-03-16T06:44:44.619Z,1.40
2024-03-16T06:47:11.809Z,1.43
2024-03-16T06:49:39.097Z,1.30
2024-03-16T06:52:06.460Z,1.10
2024-03-16T06:54:34.188Z,1.40
2024-03-16T06:57:01.449Z,1.60
2024-03-16T06:59:28.772Z,1.40
2024-03-16T07:01:56.026Z,1.40
2024-03-16T07:04:23.429Z,1.40
2024-03-16T07:06:50.768Z,1.90
2024-03-16T07:09:19.795Z,1.20
2024-03-16T07:11:48.662Z,1.47
2024-03-16T07:14:16.314Z,1.47
2024-03-16T07:16:43.634Z,1.20
2024-03-16T07:19:11.362Z,1.53
2024-03-16T07:21:38.876Z,1.43
2024-03-16T07:24:06.257Z,1.10
2024-03-16T07:26:33.594Z,1.30
2024-03-16T07:29:00.888Z,1.10
2024-03-16T07:31:28.100Z,1.00
2024-03-16T07:33:55.412Z,1.23
2024-03-16T07:36:22.750Z,1.10
2024-03-16T07:38:50.180Z,0.90
2024-03-16T07:41:17.432Z,1.30
2024-03-16T07:43:45.451Z,1.27
2024-03-16T07:46:12.983Z,1.13
2024-03-16T07:48:40.331Z,1.20
2024-03-16T07:51:08.129Z,1.10
2024-03-16T07:53:35.357Z,1.20
2024-03-16T07:56:02.912Z,1.10
2024-03-16T07:58:30.167Z,1.10
2024-03-16T08:00:57.615Z,0.90
2024-03-16T08:03:24.807Z,1.20
2024-03-16T08:05:52.051Z,1.03
2024-03-16T08:08:19.241Z,0.90
2024-03-16T08:10:46.825Z,1.53
2024-03-16T08:13:14.132Z,1.10
2024-03-16T08:15:41.414Z,1.20
2024-03-16T08:18:08.711Z,1.10
2024-03-16T08:20:35.907Z,1.30
2024-03-16T08:23:03.226Z,1.10
2024-03-16T08:25:32.698Z,1.10
2024-03-16T08:28:00.220Z,1.10
2024-03-16T08:30:27.514Z,1.10
2024-03-16T08:32:55.963Z,0.93
2024-03-16T08:35:23.270Z,1.17
2024-03-16T08:37:50.545Z,1.03
2024-03-16T08:40:19.746Z,1.10
2024-03-16T08:42:48.133Z,1.00
2024-03-16T08:45:16.907Z,1.10
2024-03-16T08:47:44.172Z,1.07
2024-03-16T08:50:11.490Z,0.70
2024-03-16T08:52:39.199Z,1.20
2024-03-16T08:55:07.163Z,1.00
2024-03-16T08:57:34.791Z,1.10
2024-03-16T09:00:02.167Z,1.10
2024-03-16T09:02:29.436Z,0.57
2024-03-16T09:04:59.279Z,1.10
2024-03-16T09:07:27.941Z,1.00
2024-03-16T09:09:55.619Z,1.00
2024-03-16T09:12:22.899Z,1.10
2024-03-16T09:14:50.096Z,0.80
2024-03-16T09:17:18.322Z,1.10
2024-03-16T09:19:48.427Z,0.97
2024-03-16T09:22:16.304Z,1.00
2024-03-16T09:24:43.574Z,0.80
2024-03-16T09:27:10.957Z,0.90
2024-03-16T09:29:42.159Z,1.10
2024-03-16T09:32:09.423Z,0.80
2024-03-16T09:34:36.903Z,0.90
2024-03-16T09:37:04.425Z,2.03
2024-03-16T09:39:31.796Z,5.60
2024-03-16T09:41:59.086Z,1.77
